Terminal Aerodrome Forecast
Issued by NWS Quad Cities IA IL

Home | Current Version | Previous Version | Text Only | Print | Product List | Glossary On
Versions: 1 2 3 4 5 6 7 8 9 10 11 12 13 14 15 16 17 18 19 20 21 22 23 24 25
672
FTUS43 KDVN 072339
TAFMLI
TAF
KMLI 072339Z 0800/0824 28011KT P6SM FEW040 BKN120
     FM080500 29014G23KT P6SM VCSH SCT025 OVC035
      TEMPO 0805/0809 5SM -SN BKN020 OVC030
     FM080900 31015G24KT 5SM -SHSN SCT009 OVC020
     FM081600 32016G26KT 3SM -SHSN OVC015=

USA.gov is the U.S. government's official web portal to all federal, state and local government web resources and services.